Time;durP1;ratioP1;P1;durP2;ratioP2;P2;SDS_P1;SDS_P2;PMS_P1;PMS_P2;Temp;Humidity;BMP_temperature;BMP_pressure;BME280_temperature;BME280_humidity;BME280_pressure;Samples;Min_cycle;Max_cycle;Signal;HPM_P1;HPM_P2
2022/06/21 00:00:05;;;;;;;7.87;2.57;;;16.70;99.90;;;;;;5006533;28;20445;-73
2022/06/21 00:02:32;;;;;;;2.37;2.17;;;16.60;99.90;;;;;;4991779;28;21081;-72
2022/06/21 00:04:57;;;;;;;6.27;2.40;;;16.60;99.90;;;;;;4991969;28;20474;-73
2022/06/21 00:07:26;;;;;;;6.43;2.90;;;16.50;99.90;;;;;;4990294;28;20465;-73
2022/06/21 00:09:53;;;;;;;2.50;2.30;;;16.50;99.90;;;;;;4991983;28;20233;-73
2022/06/21 00:12:20;;;;;;;4.00;2.00;;;16.50;99.90;;;;;;4991878;28;20537;-73
2022/06/21 00:14:46;;;;;;;8.83;2.10;;;16.40;99.90;;;;;;4991733;28;20553;-73
2022/06/21 00:17:16;;;;;;;3.77;2.43;;;16.30;99.90;;;;;;4991890;28;20415;-73
2022/06/21 00:19:43;;;;;;;2.23;1.90;;;16.30;99.90;;;;;;4991777;28;20518;-73
2022/06/21 00:22:15;;;;;;;4.83;2.40;;;16.30;99.90;;;;;;4991741;28;20422;-73
2022/06/21 00:24:42;;;;;;;3.73;2.07;;;16.20;99.90;;;;;;4991540;28;20523;-73
2022/06/21 00:27:13;;;;;;;1.90;1.70;;;16.10;99.90;;;;;;4991517;28;20419;-73
2022/06/21 00:29:39;;;;;;;3.30;2.07;;;16.00;99.90;;;;;;4991366;28;20785;-72
2022/06/21 00:32:05;;;;;;;2.60;1.90;;;16.00;99.90;;;;;;4989627;28;20439;-74
2022/06/21 00:34:31;;;;;;;2.70;1.53;;;16.00;99.90;;;;;;4991045;28;20204;-73
2022/06/21 00:37:00;;;;;;;1.83;1.70;;;16.00;99.90;;;;;;4991063;28;20443;-73
2022/06/21 00:39:25;;;;;;;4.97;1.90;;;16.00;99.90;;;;;;4990926;28;20169;-73
2022/06/21 00:42:01;;;;;;;2.23;1.70;;;16.00;99.90;;;;;;4989221;28;20432;-72
2022/06/21 00:44:27;;;;;;;3.50;2.00;;;16.00;99.90;;;;;;5004565;28;20208;-72
2022/06/21 00:47:01;;;;;;;2.23;1.93;;;15.90;99.90;;;;;;4990502;28;20855;-72
2022/06/21 00:49:32;;;;;;;2.43;2.10;;;15.80;99.90;;;;;;4990598;28;20229;-72
2022/06/21 00:52:16;;;;;;;2.00;1.90;;;15.90;99.90;;;;;;4990514;28;20424;-73
2022/06/21 00:55:02;;;;;;;4.03;2.37;;;15.90;99.90;;;;;;4988895;28;20827;-73
2022/06/21 00:57:42;;;;;;;2.90;2.07;;;15.80;99.90;;;;;;4988782;28;20468;-73
2022/06/21 01:00:39;;;;;;;5.73;2.23;;;15.80;99.90;;;;;;4990356;28;20430;-73
2022/06/21 01:03:14;;;;;;;3.57;2.20;;;15.60;99.90;;;;;;4977055;28;20571;-73
2022/06/21 01:05:45;;;;;;;2.13;2.03;;;15.40;99.90;;;;;;4989401;28;20504;-73
2022/06/21 01:08:17;;;;;;;7.47;2.40;;;15.30;99.90;;;;;;4990303;28;20433;-73
2022/06/21 01:10:47;;;;;;;4.00;2.27;;;15.20;99.90;;;;;;4990272;28;20497;-73
2022/06/21 01:13:16;;;;;;;3.10;2.40;;;14.90;99.90;;;;;;4990117;28;21247;-74
2022/06/21 01:15:45;;;;;;;2.77;2.57;;;14.90;99.90;;;;;;4990118;28;20422;-73
2022/06/21 01:18:14;;;;;;;2.00;1.83;;;14.90;99.90;;;;;;4989841;28;20775;-73
2022/06/21 01:20:44;;;;;;;9.03;2.60;;;15.10;99.90;;;;;;4990925;28;20421;-73
2022/06/21 01:23:16;;;;;;;2.37;2.17;;;15.30;99.90;;;;;;4989557;28;20448;-73
2022/06/21 01:25:57;;;;;;;2.50;2.20;;;15.30;99.90;;;;;;4989543;28;20431;-74
2022/06/21 01:28:22;;;;;;;5.00;2.40;;;15.30;99.90;;;;;;4989529;28;20932;-73
2022/06/21 01:30:52;;;;;;;3.17;2.47;;;15.10;99.90;;;;;;4989605;28;20492;-73
2022/06/21 01:33:27;;;;;;;1.90;1.80;;;14.80;99.90;;;;;;5004305;28;20229;-73
2022/06/21 01:35:55;;;;;;;2.33;2.10;;;15.00;99.90;;;;;;4989291;28;20440;-74
2022/06/21 01:38:25;;;;;;;4.37;2.07;;;15.00;99.90;;;;;;4989368;28;20426;-73
2022/06/21 01:40:58;;;;;;;2.97;2.37;;;15.10;99.90;;;;;;5003970;28;20419;-74
2022/06/21 01:43:29;;;;;;;2.70;2.20;;;15.10;99.90;;;;;;4989279;28;21351;-73
2022/06/21 01:45:58;;;;;;;2.63;2.10;;;15.20;99.90;;;;;;4989426;28;20419;-73
2022/06/21 01:48:45;;;;;;;1.77;1.67;;;15.20;99.90;;;;;;4987654;28;20430;-74
2022/06/21 01:51:15;;;;;;;2.40;2.20;;;15.20;99.90;;;;;;5003786;28;20609;-74
2022/06/21 01:53:41;;;;;;;2.27;2.10;;;15.10;99.90;;;;;;4989173;28;20470;-74
2022/06/21 01:56:13;;;;;;;3.70;2.20;;;15.10;99.90;;;;;;4987553;28;20473;-74
2022/06/21 01:58:43;;;;;;;4.43;2.30;;;15.00;99.90;;;;;;4989101;28;20419;-74
2022/06/21 02:01:17;;;;;;;4.07;2.67;;;15.00;99.90;;;;;;4989154;28;20802;-74
2022/06/21 02:03:45;;;;;;;2.47;2.27;;;15.00;99.90;;;;;;4988868;28;20472;-74
2022/06/21 02:06:14;;;;;;;2.77;2.33;;;15.00;99.90;;;;;;4988844;28;20422;-74
2022/06/21 02:09:10;;;;;;;2.67;2.47;;;15.00;99.90;;;;;;4988786;28;20911;-74
2022/06/21 02:11:42;;;;;;;3.90;2.47;;;15.00;99.90;;;;;;4985685;28;20452;-73
2022/06/21 02:14:30;;;;;;;2.63;2.43;;;15.00;99.90;;;;;;4988488;28;20497;-73
2022/06/21 02:17:06;;;;;;;2.80;2.53;;;14.90;99.90;;;;;;4988856;28;20428;-73
2022/06/21 02:19:35;;;;;;;5.93;3.00;;;14.90;99.90;;;;;;4988861;28;20419;-74
2022/06/21 02:22:01;;;;;;;3.27;2.40;;;14.90;99.90;;;;;;4988715;28;20425;-74
2022/06/21 02:24:29;;;;;;;3.20;2.10;;;14.80;99.90;;;;;;4988630;28;20806;-73
2022/06/21 02:26:59;;;;;;;3.10;2.40;;;14.80;99.90;;;;;;4987056;28;20294;-73
2022/06/21 02:29:25;;;;;;;2.50;2.30;;;14.70;99.90;;;;;;4986857;28;20520;-73
2022/06/21 02:31:50;;;;;;;2.70;2.50;;;14.80;99.90;;;;;;4987076;28;20535;-73
2022/06/21 02:34:31;;;;;;;5.83;2.73;;;14.80;99.90;;;;;;4988354;28;20975;-73
2022/06/21 02:37:00;;;;;;;2.80;2.50;;;14.80;99.90;;;;;;4988504;28;20251;-74
2022/06/21 02:39:29;;;;;;;5.20;2.70;;;14.70;99.90;;;;;;4988364;28;20423;-73
2022/06/21 02:42:17;;;;;;;6.90;2.67;;;14.70;99.90;;;;;;4986765;28;20429;-74
2022/06/21 02:44:47;;;;;;;3.60;2.27;;;14.60;99.90;;;;;;4988317;28;20449;-74
2022/06/21 02:47:17;;;;;;;2.40;2.07;;;14.70;99.90;;;;;;4988303;28;20920;-74
2022/06/21 02:49:52;;;;;;;2.27;2.07;;;14.70;99.90;;;;;;4986726;28;20848;-74
2022/06/21 02:52:29;;;;;;;7.17;2.37;;;14.70;99.90;;;;;;4988261;28;20417;-74
2022/06/21 02:54:58;;;;;;;2.93;2.73;;;14.70;99.90;;;;;;4988003;28;20429;-75
2022/06/21 02:57:23;;;;;;;3.40;2.27;;;14.70;99.90;;;;;;4988225;28;20453;-74
2022/06/21 02:59:51;;;;;;;3.70;2.50;;;14.70;99.90;;;;;;4988444;28;20447;-74
2022/06/21 03:02:22;;;;;;;2.40;2.20;;;14.70;99.90;;;;;;4988387;28;20175;-74
2022/06/21 03:05:00;;;;;;;3.33;2.33;;;14.70;99.90;;;;;;4988086;28;20438;-74
2022/06/21 03:07:38;;;;;;;2.93;2.73;;;14.70;99.90;;;;;;4987349;28;20511;-73
2022/06/21 03:10:07;;;;;;;3.60;2.70;;;14.30;99.90;;;;;;4988728;28;20519;-75
2022/06/21 03:12:35;;;;;;;2.80;2.60;;;14.30;99.90;;;;;;4988131;28;20477;-74
2022/06/21 03:15:06;;;;;;;3.10;2.47;;;14.40;99.90;;;;;;4988004;28;20532;-74
2022/06/21 03:17:51;;;;;;;4.43;2.97;;;14.50;99.90;;;;;;4987990;28;20926;-73
2022/06/21 03:20:20;;;;;;;2.93;2.60;;;14.50;99.90;;;;;;4988209;28;20419;-73
2022/06/21 03:22:48;;;;;;;2.47;2.27;;;14.50;99.90;;;;;;4987830;28;20471;-73
2022/06/21 03:25:45;;;;;;;2.60;2.40;;;14.50;99.90;;;;;;4987910;28;20418;-74
2022/06/21 03:28:28;;;;;;;3.60;2.97;;;14.60;99.90;;;;;;4985623;28;20433;-74
2022/06/21 03:31:06;;;;;;;5.50;2.40;;;14.60;99.90;;;;;;4994417;28;20422;-72
2022/06/21 03:33:34;;;;;;;2.60;2.40;;;14.60;99.90;;;;;;4994194;28;20473;-72
2022/06/21 03:36:02;;;;;;;2.93;2.73;;;14.60;99.90;;;;;;4994242;28;20417;-72
2022/06/21 03:38:27;;;;;;;4.03;2.70;;;14.60;99.90;;;;;;4992722;28;20521;-72
2022/06/21 03:43:44;;;;;;;4.53;2.83;;;14.70;99.90;;;;;;4994166;28;21011;-73
2022/06/21 03:46:18;;;;;;;3.13;2.83;;;14.70;99.90;;;;;;4992679;28;20434;-72
2022/06/21 03:48:53;;;;;;;3.93;2.77;;;14.70;99.90;;;;;;4994212;28;20517;-72
2022/06/21 03:51:37;;;;;;;6.73;2.70;;;14.70;99.90;;;;;;4994425;28;20485;-73
2022/06/21 03:54:08;;;;;;;2.70;2.50;;;14.70;99.90;;;;;;4994154;28;20479;-73
2022/06/21 03:56:45;;;;;;;3.63;3.17;;;14.80;99.90;;;;;;4994372;28;20511;-73
2022/06/21 03:59:43;;;;;;;2.90;2.37;;;14.80;99.90;;;;;;4994558;28;20409;-73
2022/06/21 04:02:18;;;;;;;6.00;3.10;;;14.90;99.90;;;;;;4994485;28;20475;-73
2022/06/21 04:04:55;;;;;;;7.23;3.07;;;14.90;99.90;;;;;;4993170;28;20446;-73
2022/06/21 04:07:24;;;;;;;2.73;2.53;;;15.00;99.90;;;;;;4994980;28;20442;-73
2022/06/21 04:10:13;;;;;;;5.23;2.57;;;15.10;99.90;;;;;;4994695;28;20445;-73
2022/06/21 04:12:48;;;;;;;4.57;2.97;;;15.10;99.90;;;;;;4994874;28;20510;-73
2022/06/21 04:15:18;;;;;;;2.97;2.67;;;15.20;99.90;;;;;;4994780;28;20425;-74
2022/06/21 04:17:52;;;;;;;3.27;3.00;;;15.30;99.90;;;;;;4995198;28;20426;-74
2022/06/21 04:20:33;;;;;;;4.63;2.87;;;15.50;99.90;;;;;;5009539;28;20420;-74
2022/06/21 04:23:19;;;;;;;5.53;3.30;;;15.60;99.90;;;;;;4994486;28;20808;-74
2022/06/21 04:25:48;;;;;;;5.90;3.00;;;15.70;99.90;;;;;;4994971;28;20775;-73
2022/06/21 04:28:27;;;;;;;7.80;2.77;;;15.90;99.90;;;;;;4994224;28;20465;-74
2022/06/21 04:31:02;;;;;;;2.17;1.90;;;15.70;99.90;;;;;;4994536;28;20509;-73
2022/06/21 04:33:46;;;;;;;5.83;2.80;;;15.70;99.90;;;;;;4992691;28;20470;-73
2022/06/21 04:36:38;;;;;;;2.57;2.13;;;15.60;99.90;;;;;;4994373;28;20421;-74
2022/06/21 04:39:29;;;;;;;3.23;2.13;;;15.50;99.90;;;;;;4993369;28;20415;-74
2022/06/21 04:42:11;;;;;;;4.40;2.00;;;15.50;99.90;;;;;;4990771;28;20989;-74
2022/06/21 04:44:45;;;;;;;3.00;1.73;;;15.40;99.90;;;;;;4991111;28;20433;-74
2022/06/21 04:47:23;;;;;;;3.70;1.67;;;15.60;99.90;;;;;;4991045;28;20417;-74
2022/06/21 04:49:59;;;;;;;3.83;2.20;;;15.60;99.90;;;;;;4990498;28;20431;-74
2022/06/21 04:52:38;;;;;;;2.17;1.80;;;15.60;99.90;;;;;;4988754;28;20480;-74
2022/06/21 04:55:12;;;;;;;8.73;1.77;;;15.70;99.90;;;;;;4990474;28;20867;-75
2022/06/21 04:57:38;;;;;;;6.67;2.20;;;15.70;99.90;;;;;;5005476;28;20422;-74
2022/06/21 05:00:19;;;;;;;7.00;2.10;;;15.90;99.90;;;;;;4989641;28;20989;-74
2022/06/21 05:02:55;;;;;;;6.43;1.77;;;16.00;99.90;;;;;;4990437;28;20468;-74
2022/06/21 05:05:22;;;;;;;8.33;2.50;;;16.10;99.90;;;;;;4990327;28;20460;-74
2022/06/21 05:07:54;;;;;;;5.37;1.73;;;16.30;99.90;;;;;;4990035;28;20422;-74
2022/06/21 05:10:25;;;;;;;4.10;1.60;;;16.40;99.90;;;;;;4988496;28;20796;-74
2022/06/21 05:12:52;;;;;;;4.17;1.93;;;16.40;99.90;;;;;;5004479;28;21129;-74
2022/06/21 05:15:26;;;;;;;7.00;1.90;;;16.40;99.90;;;;;;4990150;28;20430;-74
2022/06/21 05:18:07;;;;;;;4.37;1.60;;;16.40;99.90;;;;;;5004844;28;20426;-74
2022/06/21 05:20:37;;;;;;;2.40;1.40;;;16.60;99.90;;;;;;4989713;28;20429;-74
2022/06/21 05:23:07;;;;;;;4.00;2.20;;;16.60;99.90;;;;;;4989799;28;20491;-74
2022/06/21 05:25:44;;;;;;;7.40;2.63;;;16.70;99.90;;;;;;4989934;28;20425;-74
2022/06/21 05:28:37;;;;;;;2.87;1.63;;;16.80;99.90;;;;;;5004726;28;21094;-74
2022/06/21 05:31:11;;;;;;;2.87;1.37;;;16.80;99.40;;;;;;4988243;28;20438;-74
2022/06/21 05:34:01;;;;;;;2.47;1.77;;;16.80;99.90;;;;;;4988224;28;20988;-74
2022/06/21 05:36:51;;;;;;;6.90;1.90;;;16.90;99.90;;;;;;4989723;28;20420;-74
2022/06/21 05:39:22;;;;;;;3.77;2.10;;;16.90;99.30;;;;;;4993226;28;21146;-74
2022/06/21 05:41:52;;;;;;;4.67;2.07;;;16.90;99.90;;;;;;4989879;28;20428;-74
2022/06/21 05:44:39;;;;;;;1.83;1.60;;;16.90;99.90;;;;;;4989802;28;20538;-74
2022/06/21 05:47:20;;;;;;;3.13;1.50;;;17.00;99.10;;;;;;4989863;28;20421;-73
2022/06/21 05:49:47;;;;;;;2.20;1.50;;;17.00;99.00;;;;;;4990557;28;20450;-74
2022/06/21 05:52:34;;;;;;;3.53;1.60;;;17.10;98.80;;;;;;4989692;28;20941;-74
2022/06/21 05:55:28;;;;;;;3.80;1.97;;;17.00;98.10;;;;;;5004703;28;20468;-74
2022/06/21 05:58:03;;;;;;;2.50;1.77;;;17.00;97.90;;;;;;4986645;28;20447;-74
2022/06/21 06:00:41;;;;;;;3.70;1.50;;;17.00;98.40;;;;;;4990081;28;20511;-74
2022/06/21 06:03:30;;;;;;;6.43;1.47;;;17.00;98.20;;;;;;4989998;28;20438;-74
2022/06/21 06:05:59;;;;;;;6.10;2.53;;;17.00;97.10;;;;;;4992606;28;20429;-74
2022/06/21 06:08:31;;;;;;;2.40;1.23;;;17.20;96.60;;;;;;4987660;28;20512;-75
2022/06/21 06:11:01;;;;;;;2.50;1.70;;;17.30;96.50;;;;;;4989597;28;21161;-74
2022/06/21 06:13:35;;;;;;;4.20;1.70;;;17.40;97.40;;;;;;4989196;28;20537;-74
2022/06/21 06:16:09;;;;;;;5.63;2.00;;;17.60;95.90;;;;;;4989273;28;20471;-74
2022/06/21 06:18:40;;;;;;;5.03;1.60;;;17.70;96.00;;;;;;4989145;28;20427;-74
2022/06/21 06:21:17;;;;;;;2.27;1.33;;;17.90;96.10;;;;;;4989006;28;20453;-74
2022/06/21 06:23:57;;;;;;;4.03;1.40;;;18.20;96.60;;;;;;4987451;28;20447;-74
2022/06/21 06:26:31;;;;;;;2.47;1.60;;;18.20;95.90;;;;;;4988999;28;20432;-74
2022/06/21 06:29:01;;;;;;;3.70;1.60;;;18.40;95.40;;;;;;4988997;28;20426;-74
2022/06/21 06:31:30;;;;;;;3.23;1.60;;;18.40;94.80;;;;;;4988930;28;20430;-74
2022/06/21 06:34:06;;;;;;;2.93;1.93;;;18.60;96.10;;;;;;4988820;28;20562;-74
2022/06/21 06:36:40;;;;;;;4.20;1.57;;;18.70;94.30;;;;;;4988982;28;20821;-74
2022/06/21 06:39:22;;;;;;;1.90;1.60;;;18.60;95.30;;;;;;4988796;28;20968;-74
2022/06/21 06:42:10;;;;;;;2.80;1.47;;;18.80;94.50;;;;;;4988765;28;20434;-74
2022/06/21 06:44:52;;;;;;;5.13;1.80;;;19.10;95.90;;;;;;4988603;28;20551;-74
2022/06/21 06:47:29;;;;;;;5.20;1.73;;;19.30;94.70;;;;;;4972694;28;20440;-74
2022/06/21 06:50:11;;;;;;;5.43;1.53;;;19.40;96.50;;;;;;4987622;28;20433;-74
2022/06/21 06:52:42;;;;;;;2.17;1.30;;;19.10;93.30;;;;;;4989145;28;20459;-74
2022/06/21 06:55:28;;;;;;;2.97;1.60;;;19.30;94.10;;;;;;4988990;28;20428;-74
2022/06/21 06:58:03;;;;;;;2.77;1.53;;;19.60;94.60;;;;;;4958432;28;20430;-74
2022/06/21 07:00:41;;;;;;;2.60;1.77;;;19.60;94.80;;;;;;4989536;28;20474;-74
2022/06/21 07:03:14;;;;;;;8.77;1.93;;;19.90;94.20;;;;;;4989006;28;20439;-74
2022/06/21 07:06:02;;;;;;;4.90;2.23;;;19.80;94.10;;;;;;4989102;28;20421;-74
2022/06/21 07:08:55;;;;;;;3.33;1.73;;;20.20;96.00;;;;;;4989102;28;20446;-74
2022/06/21 07:11:28;;;;;;;1.83;1.73;;;20.40;94.20;;;;;;4988915;28;20467;-75
2022/06/21 07:13:54;;;;;;;3.83;1.60;;;20.60;94.40;;;;;;4988731;28;20541;-74
2022/06/21 07:16:24;;;;;;;2.33;1.63;;;20.60;93.20;;;;;;4987379;28;21176;-75
2022/06/21 07:18:53;;;;;;;3.80;1.67;;;20.40;92.80;;;;;;4987366;28;20200;-74
2022/06/21 07:21:21;;;;;;;4.80;1.80;;;20.50;93.90;;;;;;4988680;28;20910;-75
2022/06/21 07:23:48;;;;;;;2.70;1.70;;;20.80;94.30;;;;;;4986977;28;20506;-75
2022/06/21 07:26:19;;;;;;;5.50;2.10;;;21.10;94.40;;;;;;4988576;28;20439;-75
2022/06/21 07:28:56;;;;;;;2.63;1.73;;;21.40;92.80;;;;;;4988457;28;20456;-74
2022/06/21 07:31:33;;;;;;;3.73;1.50;;;21.30;91.80;;;;;;4988690;28;20431;-74
2022/06/21 07:34:14;;;;;;;2.93;1.43;;;21.40;92.50;;;;;;4988327;28;20479;-75
2022/06/21 07:36:49;;;;;;;1.67;1.43;;;21.00;92.40;;;;;;4988463;28;20416;-75
2022/06/21 07:39:21;;;;;;;5.50;1.93;;;21.10;93.80;;;;;;4988524;28;20414;-74
2022/06/21 07:41:54;;;;;;;2.40;1.67;;;20.90;92.60;;;;;;4988417;28;20454;-74
2022/06/21 07:44:33;;;;;;;3.00;1.70;;;21.00;94.50;;;;;;4988593;28;20523;-76
2022/06/21 07:47:06;;;;;;;2.00;1.60;;;21.00;93.80;;;;;;4988626;28;20977;-74
2022/06/21 07:49:44;;;;;;;6.67;2.00;;;21.20;93.80;;;;;;4988560;28;20580;-74
2022/06/21 07:52:50;;;;;;;3.03;1.77;;;21.30;93.50;;;;;;4988580;28;20428;-74
2022/06/21 07:55:18;;;;;;;3.67;2.10;;;21.30;92.50;;;;;;4958424;28;20440;-74
2022/06/21 07:57:49;;;;;;;2.77;1.50;;;21.30;96.00;;;;;;4988401;28;20413;-74
2022/06/21 08:00:20;;;;;;;3.40;1.73;;;21.30;94.50;;;;;;4988606;28;20414;-74
2022/06/21 08:09:07;;;;;;;3.53;1.87;;;21.10;93.80;;;;;;4988305;28;20539;-74
2022/06/21 08:11:38;;;;;;;3.13;1.80;;;21.40;94.00;;;;;;4959476;28;20431;-74
2022/06/21 08:14:04;;;;;;;2.60;1.60;;;21.50;93.90;;;;;;5002769;28;20480;-73
2022/06/21 08:17:09;;;;;;;2.30;1.27;;;21.60;94.30;;;;;;4991343;28;20436;-73
2022/06/21 08:19:49;;;;;;;3.07;1.43;;;22.00;94.40;;;;;;4991337;28;20416;-73
2022/06/21 08:22:27;;;;;;;4.20;1.77;;;22.50;92.70;;;;;;4991398;28;20444;-73
2022/06/21 08:24:57;;;;;;;3.30;1.60;;;22.60;91.60;;;;;;5006160;28;20479;-73
2022/06/21 08:27:25;;;;;;;4.80;1.87;;;22.50;93.40;;;;;;4991211;28;20464;-73
2022/06/21 08:29:59;;;;;;;4.70;2.03;;;22.30;93.90;;;;;;4989269;28;20907;-73
2022/06/21 08:32:32;;;;;;;3.67;1.73;;;22.40;94.00;;;;;;4989701;28;21001;-73
2022/06/21 08:35:20;;;;;;;5.53;2.40;;;22.50;94.00;;;;;;4991180;28;20540;-73
2022/06/21 08:38:07;;;;;;;5.20;1.97;;;22.50;93.80;;;;;;4990848;28;20425;-73
2022/06/21 08:40:55;;;;;;;3.63;1.90;;;22.60;96.10;;;;;;4991240;28;20422;-73
2022/06/21 08:43:51;;;;;;;3.97;1.43;;;22.20;92.70;;;;;;4991310;28;20487;-73
2022/06/21 08:46:36;;;;;;;3.10;1.90;;;22.20;94.20;;;;;;4991420;28;20423;-73
2022/06/21 08:49:23;;;;;;;8.20;3.17;;;22.10;94.10;;;;;;4991280;28;20417;-73
2022/06/21 08:51:55;;;;;;;5.57;2.17;;;22.10;94.10;;;;;;4991339;28;20785;-73
2022/06/21 08:54:49;;;;;;;6.83;2.00;;;22.20;95.20;;;;;;4991135;28;20480;-73
2022/06/21 08:57:29;;;;;;;4.00;2.50;;;22.00;95.70;;;;;;4990710;28;20496;-73
2022/06/21 09:00:33;;;;;;;13.20;2.13;;;21.80;94.60;;;;;;4990873;28;20883;-73
2022/06/21 09:03:17;;;;;;;2.70;2.00;;;21.80;96.10;;;;;;4989382;28;20414;-73
2022/06/21 09:05:51;;;;;;;5.03;2.40;;;21.90;97.20;;;;;;4990910;28;21189;-73
2022/06/21 09:08:36;;;;;;;2.20;2.00;;;21.90;97.10;;;;;;4991005;28;20424;-73
2022/06/21 09:11:11;;;;;;;9.63;2.10;;;22.40;96.70;;;;;;4991511;28;20419;-73
2022/06/21 09:14:15;;;;;;;5.20;2.33;;;22.50;95.00;;;;;;4990695;28;20981;-74
2022/06/21 09:16:47;;;;;;;4.90;2.13;;;22.90;98.10;;;;;;4967872;28;20510;-74
2022/06/21 09:19:24;;;;;;;7.53;2.57;;;22.80;96.00;;;;;;4989307;28;20423;-74
2022/06/21 09:22:08;;;;;;;6.20;2.20;;;23.20;95.10;;;;;;4990587;28;20477;-74
2022/06/21 09:24:45;;;;;;;2.23;2.03;;;23.20;95.00;;;;;;4989119;28;20481;-73
2022/06/21 09:27:46;;;;;;;5.70;2.50;;;23.30;94.90;;;;;;4990110;28;20441;-74
2022/06/21 09:30:29;;;;;;;2.53;1.87;;;23.40;94.90;;;;;;4990690;28;20795;-74
2022/06/21 09:33:13;;;;;;;4.23;2.70;;;23.50;94.40;;;;;;4990608;28;20466;-73
2022/06/21 09:35:50;;;;;;;3.57;1.93;;;23.50;95.30;;;;;;4989346;28;20418;-73
2022/06/21 09:38:31;;;;;;;3.73;1.70;;;23.70;95.50;;;;;;4990776;28;20410;-74
2022/06/21 09:41:20;;;;;;;2.30;1.80;;;24.10;94.10;;;;;;4990887;28;20422;-74
2022/06/21 09:44:17;;;;;;;4.60;2.60;;;24.90;94.00;;;;;;4979850;28;20474;-74
2022/06/21 09:47:21;;;;;;;2.80;2.20;;;24.70;92.80;;;;;;4990052;28;20466;-73
2022/06/21 09:49:52;;;;;;;3.10;2.00;;;24.90;92.40;;;;;;4990797;28;20561;-74
2022/06/21 09:52:37;;;;;;;5.50;2.40;;;24.60;93.40;;;;;;4989089;28;20426;-74
2022/06/21 09:55:33;;;;;;;7.13;2.00;;;25.20;91.70;;;;;;4990363;28;20490;-74
2022/06/21 09:58:40;;;;;;;6.40;2.47;;;25.50;95.10;;;;;;4991407;28;20512;-74
2022/06/21 10:01:32;;;;;;;5.23;2.37;;;25.90;93.50;;;;;;4990781;28;20408;-74
2022/06/21 10:04:10;;;;;;;2.00;1.90;;;26.10;91.10;;;;;;4990994;28;20894;-74
2022/06/21 10:07:04;;;;;;;5.87;2.70;;;26.20;92.50;;;;;;4990945;28;20918;-74
2022/06/21 10:10:06;;;;;;;4.87;2.10;;;26.50;90.20;;;;;;4990536;28;20504;-74
2022/06/21 10:13:09;;;;;;;5.77;2.10;;;27.10;89.60;;;;;;4990673;28;20515;-74
2022/06/21 10:15:43;;;;;;;5.63;3.03;;;27.30;90.20;;;;;;4991962;28;20411;-75
2022/06/21 10:18:28;;;;;;;5.73;2.40;;;27.30;86.10;;;;;;4990522;28;20397;-74
2022/06/21 10:20:56;;;;;;;5.87;2.47;;;27.60;86.90;;;;;;4990622;28;20441;-74
2022/06/21 10:23:56;;;;;;;7.70;2.40;;;27.80;86.70;;;;;;4990190;28;20526;-74
2022/06/21 10:26:39;;;;;;;4.63;2.50;;;28.30;89.00;;;;;;4990604;28;20463;-74
2022/06/21 10:29:43;;;;;;;8.83;2.77;;;28.70;85.00;;;;;;4990379;28;20409;-74
2022/06/21 10:32:24;;;;;;;3.07;2.50;;;28.70;82.50;;;;;;4937225;28;20514;-74
2022/06/21 10:34:56;;;;;;;4.57;2.73;;;27.90;81.00;;;;;;4989981;28;20822;-74
2022/06/21 10:37:40;;;;;;;4.37;2.43;;;27.90;84.60;;;;;;4989296;28;20397;-74
2022/06/21 10:40:25;;;;;;;4.23;2.27;;;28.10;87.20;;;;;;4989782;28;20412;-74
2022/06/21 10:43:28;;;;;;;3.20;3.00;;;28.70;83.70;;;;;;4988893;28;20456;-74
2022/06/21 10:46:19;;;;;;;9.73;2.80;;;28.90;83.30;;;;;;4989054;28;20490;-74
2022/06/21 10:49:10;;;;;;;8.10;2.90;;;29.50;80.40;;;;;;4987371;28;20410;-74
2022/06/21 10:52:03;;;;;;;4.53;3.40;;;29.70;80.10;;;;;;4988747;28;20487;-74
2022/06/21 10:54:47;;;;;;;3.67;2.70;;;29.30;81.60;;;;;;4988446;28;20568;-74
2022/06/21 10:57:44;;;;;;;3.27;2.97;;;29.20;80.80;;;;;;4987193;28;20424;-74
2022/06/21 11:01:17;;;;;;;7.90;3.40;;;29.20;81.70;;;;;;4988512;28;20417;-74
2022/06/21 11:03:42;;;;;;;5.83;3.20;;;29.40;81.60;;;;;;4950677;28;20443;-74
2022/06/21 11:06:34;;;;;;;6.27;3.30;;;29.40;80.10;;;;;;4986773;28;20421;-74
2022/06/21 11:09:13;;;;;;;3.53;2.90;;;29.30;79.60;;;;;;4988975;28;20200;-74
2022/06/21 11:12:52;;;;;;;4.50;3.30;;;29.30;82.70;;;;;;4988574;28;21289;-74
2022/06/21 11:14:59;;;;;;;5.03;3.60;;;29.20;83.30;;;;;;4987809;28;20542;-74
2022/06/21 11:17:56;;;;;;;9.03;4.43;;;28.50;84.70;;;;;;4988944;28;20424;-74
2022/06/21 11:20:51;;;;;;;3.17;2.87;;;28.60;86.30;;;;;;4977594;28;20444;-74
2022/06/21 11:23:31;;;;;;;3.87;3.13;;;28.70;84.50;;;;;;4988649;28;20949;-74
2022/06/21 11:25:59;;;;;;;5.13;3.63;;;28.00;86.30;;;;;;4988961;28;21098;-74
2022/06/21 11:28:55;;;;;;;12.70;3.87;;;27.50;89.80;;;;;;4987182;28;20791;-74
2022/06/21 11:31:35;;;;;;;6.03;4.30;;;27.80;91.00;;;;;;4988700;28;20452;-74
2022/06/21 11:34:19;;;;;;;8.00;3.70;;;27.90;91.70;;;;;;4988558;28;21383;-74
2022/06/21 11:36:59;;;;;;;9.87;4.10;;;28.10;90.50;;;;;;4988457;28;20421;-74
2022/06/21 11:39:28;;;;;;;6.60;4.27;;;28.80;90.10;;;;;;4988552;28;20424;-74
2022/06/21 11:42:06;;;;;;;6.70;3.87;;;29.30;88.60;;;;;;4988439;28;20417;-74
2022/06/21 11:44:37;;;;;;;3.80;3.47;;;29.40;90.20;;;;;;4988404;28;20976;-74
2022/06/21 11:47:41;;;;;;;10.90;5.10;;;29.70;86.70;;;;;;4988287;28;20417;-74
2022/06/21 11:50:23;;;;;;;7.90;4.80;;;29.00;85.70;;;;;;4981529;28;21219;-74
2022/06/21 11:52:58;;;;;;;6.40;4.33;;;29.00;90.00;;;;;;4992106;28;20464;-74
2022/06/21 11:55:35;;;;;;;10.63;5.00;;;29.10;89.60;;;;;;4992254;28;20893;-74
2022/06/21 11:58:03;;;;;;;9.20;5.73;;;29.20;88.50;;;;;;4992237;28;20412;-74
2022/06/21 12:00:40;;;;;;;8.07;4.90;;;29.00;89.80;;;;;;4992197;28;21207;-74
2022/06/21 12:03:14;;;;;;;7.73;5.53;;;28.20;89.10;;;;;;4992194;28;20438;-74
2022/06/21 12:05:58;;;;;;;5.10;4.50;;;27.10;91.60;;;;;;4992107;28;20584;-74
2022/06/21 12:08:39;;;;;;;9.27;5.47;;;26.90;93.10;;;;;;4992044;28;20409;-74
2022/06/21 12:11:29;;;;;;;10.53;4.73;;;26.70;93.60;;;;;;4991929;28;20977;-74
2022/06/21 12:14:25;;;;;;;4.50;4.13;;;27.40;95.00;;;;;;4991830;28;20484;-74
2022/06/21 12:17:04;;;;;;;5.33;4.30;;;28.00;92.70;;;;;;4992311;28;20428;-74
2022/06/21 12:19:41;;;;;;;6.57;5.07;;;28.90;95.00;;;;;;4992752;28;20432;-75
2022/06/21 12:22:21;;;;;;;6.90;4.67;;;28.80;91.90;;;;;;4991358;28;20952;-74
2022/06/21 12:24:49;;;;;;;9.97;5.30;;;29.20;91.90;;;;;;4992592;28;20560;-74
2022/06/21 12:27:16;;;;;;;7.37;4.70;;;29.20;90.60;;;;;;4991270;28;20798;-76
2022/06/21 12:29:41;;;;;;;6.87;4.50;;;29.20;90.40;;;;;;4992548;28;20426;-74
2022/06/21 12:32:18;;;;;;;22.37;5.30;;;29.10;91.00;;;;;;4991191;28;20543;-74
2022/06/21 12:35:03;;;;;;;5.83;4.60;;;28.90;91.20;;;;;;5006968;28;20218;-75
2022/06/21 12:37:52;;;;;;;8.27;4.63;;;28.80;91.50;;;;;;4991989;28;20837;-75
2022/06/21 12:40:37;;;;;;;7.10;4.67;;;28.80;91.20;;;;;;4992246;28;20414;-74
2022/06/21 12:43:23;;;;;;;7.27;5.50;;;28.80;92.80;;;;;;4990302;28;20438;-74
2022/06/21 12:46:13;;;;;;;4.90;4.50;;;28.10;92.20;;;;;;4990905;28;20568;-74
2022/06/21 12:49:06;;;;;;;5.93;4.20;;;28.00;93.60;;;;;;4991672;28;20507;-75
2022/06/21 12:52:02;;;;;;;5.70;4.50;;;28.30;93.10;;;;;;4991527;28;20405;-74
2022/06/21 12:55:02;;;;;;;7.60;4.93;;;28.70;93.90;;;;;;4991264;28;20480;-74
2022/06/21 12:57:36;;;;;;;10.23;4.33;;;28.70;92.10;;;;;;4991544;28;20410;-74
2022/06/21 13:00:43;;;;;;;8.30;5.37;;;28.60;93.30;;;;;;4989910;28;21092;-74
2022/06/21 13:03:21;;;;;;;5.63;4.43;;;28.90;92.50;;;;;;4991166;28;20429;-74
2022/06/21 13:06:26;;;;;;;5.83;4.53;;;28.80;91.80;;;;;;4991159;28;20413;-74
2022/06/21 13:09:14;;;;;;;4.73;4.30;;;29.40;91.90;;;;;;4991152;28;20462;-74
2022/06/21 13:12:04;;;;;;;4.80;4.40;;;29.60;91.30;;;;;;4990873;28;20417;-74
2022/06/21 13:14:57;;;;;;;10.97;4.87;;;30.00;90.00;;;;;;4990847;28;20476;-75
2022/06/21 13:18:02;;;;;;;6.83;4.63;;;30.10;89.90;;;;;;4989554;28;20839;-75
2022/06/21 13:21:02;;;;;;;5.27;4.20;;;30.10;88.40;;;;;;5000795;28;20414;-75
2022/06/21 13:23:36;;;;;;;4.10;3.80;;;30.40;89.00;;;;;;4994437;28;20722;-75
2022/06/21 13:26:22;;;;;;;5.30;4.80;;;30.60;88.40;;;;;;4990654;28;20420;-75
2022/06/21 13:29:05;;;;;;;10.20;4.40;;;30.50;86.70;;;;;;4990653;28;20421;-75
2022/06/21 13:31:48;;;;;;;5.40;4.50;;;30.40;87.00;;;;;;4990568;28;20425;-75
2022/06/21 13:34:40;;;;;;;4.60;4.30;;;29.90;89.20;;;;;;4990359;28;20480;-75
2022/06/21 13:37:20;;;;;;;7.30;4.83;;;30.10;90.00;;;;;;4988889;28;20425;-75
2022/06/21 13:39:52;;;;;;;5.47;4.93;;;30.40;86.70;;;;;;4988412;28;20988;-75
2022/06/21 13:42:40;;;;;;;7.33;5.03;;;30.00;85.60;;;;;;4988434;28;20795;-75
2022/06/21 13:45:32;;;;;;;8.60;4.23;;;29.70;87.50;;;;;;4989666;28;20481;-75
2022/06/21 13:48:12;;;;;;;6.60;4.87;;;29.40;89.90;;;;;;4989656;28;20421;-75
2022/06/21 13:50:47;;;;;;;5.97;4.70;;;29.70;90.50;;;;;;4989546;28;20841;-75
2022/06/21 13:53:33;;;;;;;10.43;4.70;;;29.60;85.70;;;;;;4989398;28;20476;-75